createdAt,value
2022-08-30T00:00:03.327Z,0.00
2022-08-30T00:01:03.280Z,0.00
2022-08-30T00:03:07.348Z,0.00
2022-08-30T00:04:07.154Z,0.00
2022-08-30T00:06:11.080Z,0.00
2022-08-30T00:07:11.034Z,0.00
2022-08-30T00:09:14.938Z,0.00
2022-08-30T00:10:14.905Z,0.00
2022-08-30T00:12:07.753Z,0.00
2022-08-30T00:13:07.710Z,0.00
2022-08-30T00:15:12.342Z,0.00
2022-08-30T00:16:11.642Z,0.00
2022-08-30T00:18:15.515Z,0.00
2022-08-30T00:19:15.457Z,0.00
2022-08-30T00:21:19.364Z,0.00
2022-08-30T00:22:19.334Z,0.00
2022-08-30T00:24:23.083Z,0.00
2022-08-30T00:25:23.056Z,0.00
2022-08-30T00:27:26.942Z,0.00
2022-08-30T00:28:26.917Z,0.00
2022-08-30T00:30:30.830Z,0.00
2022-08-30T00:31:30.830Z,0.00
2022-08-30T00:33:34.702Z,0.00
2022-08-30T00:34:34.659Z,0.00
2022-08-30T00:36:38.588Z,0.00
2022-08-30T00:37:38.539Z,0.00
2022-08-30T00:39:42.451Z,0.00
2022-08-30T00:40:42.486Z,0.00
2022-08-30T00:42:50.560Z,0.00
2022-08-30T00:43:46.293Z,0.00
2022-08-30T00:45:50.231Z,0.00
2022-08-30T00:46:50.170Z,0.00
2022-08-30T00:48:54.073Z,0.00
2022-08-30T00:49:54.041Z,0.00
2022-08-30T00:51:46.890Z,0.00
2022-08-30T00:52:46.846Z,0.00
2022-08-30T00:54:50.770Z,0.00
2022-08-30T00:55:50.716Z,0.00
2022-08-30T00:57:54.621Z,0.00
2022-08-30T00:58:54.595Z,0.00
2022-08-30T01:00:58.509Z,0.00
2022-08-30T01:01:58.515Z,0.00
2022-08-30T01:04:02.462Z,0.00
2022-08-30T01:05:02.334Z,0.00
2022-08-30T01:07:06.240Z,0.00
2022-08-30T01:08:06.204Z,0.00
2022-08-30T01:10:10.129Z,0.00
2022-08-30T01:11:10.085Z,0.00
2022-08-30T01:13:14.001Z,0.00
2022-08-30T01:14:13.996Z,0.00
2022-08-30T01:16:17.919Z,0.00
2022-08-30T01:17:17.905Z,0.00
2022-08-30T01:19:21.754Z,0.00
2022-08-30T01:20:21.728Z,0.00
2022-08-30T01:22:14.544Z,0.00
2022-08-30T01:23:14.749Z,0.00
2022-08-30T01:25:18.436Z,0.00
2022-08-30T01:26:19.223Z,0.00
2022-08-30T01:28:22.306Z,0.00
2022-08-30T01:29:22.264Z,0.00
2022-08-30T01:31:26.232Z,0.00
2022-08-30T01:32:29.004Z,0.00
2022-08-30T01:34:30.048Z,0.00
2022-08-30T01:35:30.003Z,0.00
2022-08-30T01:36:29.974Z,0.00
2022-08-30T01:37:29.947Z,0.00
2022-08-30T01:38:29.914Z,0.00
2022-08-30T01:39:29.887Z,0.00
2022-08-30T01:40:30.077Z,0.00
2022-08-30T01:41:29.830Z,0.00
2022-08-30T01:42:29.797Z,0.00
2022-08-30T01:43:29.767Z,0.00
2022-08-30T01:44:29.739Z,0.00
2022-08-30T01:45:29.709Z,0.00
2022-08-30T01:46:29.759Z,0.00
2022-08-30T01:47:29.647Z,0.00
2022-08-30T01:48:30.933Z,0.00
2022-08-30T01:49:29.590Z,0.00
2022-08-30T01:50:29.558Z,0.00
2022-08-30T01:51:29.529Z,0.00
2022-08-30T01:52:29.499Z,0.00
2022-08-30T01:53:29.470Z,0.00
2022-08-30T01:54:33.291Z,0.00
2022-08-30T01:55:29.409Z,0.00
2022-08-30T01:56:29.408Z,0.00
2022-08-30T01:57:29.346Z,0.00
2022-08-30T01:58:29.315Z,0.00
2022-08-30T01:59:29.289Z,0.00
2022-08-30T02:00:29.259Z,0.00
2022-08-30T02:01:29.291Z,0.00
2022-08-30T02:02:29.995Z,0.00
2022-08-30T02:03:29.198Z,0.00
2022-08-30T02:06:07.674Z,0.00
2022-08-30T02:07:07.621Z,0.00
2022-08-30T02:09:11.530Z,0.00
2022-08-30T02:10:11.498Z,0.00
2022-08-30T02:12:04.351Z,0.00
2022-08-30T02:14:42.806Z,0.00
2022-08-30T02:15:42.781Z,0.00
2022-08-30T02:17:46.698Z,0.00
2022-08-30T02:18:46.645Z,0.00
2022-08-30T02:20:51.406Z,0.00
2022-08-30T02:21:53.057Z,0.00
2022-08-30T02:23:55.893Z,0.00
2022-08-30T02:24:55.846Z,0.00
2022-08-30T02:27:00.236Z,0.00
2022-08-30T02:28:00.210Z,0.00
2022-08-30T02:29:00.175Z,0.00
2022-08-30T02:30:00.160Z,0.00
2022-08-30T02:31:00.202Z,0.00
2022-08-30T02:32:00.095Z,0.00
2022-08-30T02:33:00.056Z,0.00
2022-08-30T02:34:00.034Z,0.00
2022-08-30T02:34:59.999Z,0.00
2022-08-30T02:35:59.969Z,0.00
2022-08-30T02:36:59.937Z,0.00
2022-08-30T02:37:59.909Z,0.00
2022-08-30T02:38:59.885Z,0.00
2022-08-30T02:39:59.878Z,0.00
2022-08-30T02:40:59.818Z,0.00
2022-08-30T02:41:59.814Z,0.00
2022-08-30T02:42:59.759Z,0.00
2022-08-30T02:43:59.728Z,0.00
2022-08-30T02:44:59.697Z,0.00
2022-08-30T02:45:59.772Z,0.00
2022-08-30T02:46:59.643Z,0.00
2022-08-30T02:47:59.610Z,0.00
2022-08-30T02:49:05.616Z,0.00
2022-08-30T02:49:59.547Z,0.00
2022-08-30T02:50:59.521Z,0.00
2022-08-30T02:51:59.515Z,0.00
2022-08-30T05:08:25.613Z,120.00
2022-08-30T05:09:25.556Z,128.00
2022-08-30T05:11:29.459Z,144.00
2022-08-30T05:12:29.427Z,152.00
2022-08-30T05:14:33.351Z,172.00
2022-08-30T05:17:11.802Z,196.00
2022-08-30T05:18:14.232Z,200.00
2022-08-30T05:20:15.679Z,188.00
2022-08-30T05:21:15.628Z,188.00
2022-08-30T05:23:19.547Z,196.00
2022-08-30T05:24:19.497Z,196.00
2022-08-30T05:26:25.061Z,204.00
2022-08-30T05:27:23.368Z,208.00
2022-08-30T05:29:27.267Z,232.00
2022-08-30T05:30:27.230Z,240.00
2022-08-30T05:32:20.075Z,264.00
2022-08-30T05:33:20.028Z,280.00
2022-08-30T05:35:25.924Z,288.00
2022-08-30T05:36:23.906Z,288.00
2022-08-30T05:38:27.819Z,284.00
2022-08-30T05:39:27.779Z,284.00
2022-08-30T05:41:20.605Z,292.00
2022-08-30T05:42:20.579Z,292.00
2022-08-30T05:44:25.935Z,304.00
2022-08-30T05:45:24.442Z,312.00
2022-08-30T05:47:28.846Z,328.00
2022-08-30T05:48:28.809Z,336.00
2022-08-30T05:50:34.931Z,352.00
2022-08-30T05:51:32.680Z,360.00
2022-08-30T05:53:36.611Z,364.00
2022-08-30T05:54:36.557Z,360.00
2022-08-30T05:56:40.477Z,360.00
2022-08-30T05:57:40.429Z,364.00
2022-08-30T05:59:44.343Z,376.00
2022-08-30T06:00:44.297Z,380.00
2022-08-30T06:02:48.268Z,396.00
2022-08-30T06:03:48.170Z,400.00
2022-08-30T06:05:52.087Z,416.00
2022-08-30T06:06:52.041Z,424.00
2022-08-30T06:08:55.954Z,440.00
2022-08-30T06:09:55.922Z,452.00
2022-08-30T06:11:48.768Z,468.00
2022-08-30T06:12:48.714Z,488.00
2022-08-30T06:14:53.541Z,500.00
2022-08-30T06:15:52.670Z,508.00
2022-08-30T06:17:56.498Z,516.00
2022-08-30T06:18:56.454Z,532.00
2022-08-30T06:21:00.365Z,552.00
2022-08-30T06:22:00.327Z,564.00
2022-08-30T06:24:04.226Z,580.00
2022-08-30T06:25:04.188Z,592.00
2022-08-30T06:27:08.102Z,612.00
2022-08-30T06:28:08.055Z,624.00
2022-08-30T06:30:11.977Z,664.00
2022-08-30T06:31:11.964Z,684.00
2022-08-30T06:33:15.848Z,744.00
2022-08-30T06:34:15.799Z,772.00
2022-08-30T06:36:19.707Z,820.00
2022-08-30T06:37:29.230Z,840.00
2022-08-30T06:39:23.583Z,828.00
2022-08-30T06:40:23.557Z,804.00
2022-08-30T06:42:16.416Z,772.00
2022-08-30T06:43:16.336Z,768.00
2022-08-30T06:44:16.311Z,768.00
2022-08-30T06:45:16.271Z,776.00
2022-08-30T06:46:16.259Z,792.00
2022-08-30T06:47:16.211Z,788.00
2022-08-30T06:48:16.336Z,788.00
2022-08-30T06:49:16.148Z,796.00
2022-08-30T06:50:16.118Z,804.00
2022-08-30T06:51:16.089Z,828.00
2022-08-30T06:52:16.058Z,864.00
2022-08-30T06:53:16.029Z,876.00
2022-08-30T06:54:15.995Z,884.00
2022-08-30T06:55:16.024Z,904.00
2022-08-30T06:56:16.796Z,916.00
2022-08-30T06:57:15.908Z,912.00
2022-08-30T06:58:16.031Z,904.00
2022-08-30T06:59:15.847Z,920.00
2022-08-30T07:00:15.811Z,948.00
2022-08-30T07:01:15.784Z,972.00
2022-08-30T07:02:15.796Z,980.00
2022-08-30T07:03:15.826Z,996.00
2022-08-30T07:04:15.687Z,1008.00
2022-08-30T07:05:18.777Z,1008.00
2022-08-30T07:06:15.628Z,1020.00
2022-08-30T07:07:15.602Z,1056.00
2022-08-30T07:08:15.658Z,1048.00
2022-08-30T07:09:15.604Z,1048.00
2022-08-30T07:10:15.511Z,1020.00
2022-08-30T07:11:15.476Z,972.00
2022-08-30T07:12:15.450Z,924.00
2022-08-30T07:13:15.590Z,888.00
2022-08-30T07:14:15.385Z,868.00
2022-08-30T07:15:15.362Z,864.00
2022-08-30T07:16:15.377Z,876.00
2022-08-30T07:17:15.302Z,900.00
2022-08-30T07:18:15.265Z,928.00
2022-08-30T07:19:20.800Z,972.00
2022-08-30T07:20:15.203Z,1028.00
2022-08-30T07:21:15.178Z,1084.00
2022-08-30T07:22:15.147Z,1148.00
2022-08-30T07:23:15.226Z,1196.00
2022-08-30T07:24:15.087Z,1224.00
2022-08-30T07:25:15.055Z,1216.00
2022-08-30T07:26:15.025Z,1196.00
2022-08-30T07:27:14.997Z,1144.00
2022-08-30T07:28:14.966Z,1104.00
2022-08-30T07:29:14.937Z,1092.00
2022-08-30T07:30:14.906Z,1100.00
2022-08-30T07:31:14.881Z,1108.00
2022-08-30T07:32:14.848Z,1120.00
2022-08-30T07:33:14.821Z,1108.00
2022-08-30T07:34:14.794Z,1140.00
2022-08-30T07:35:14.763Z,1144.00
2022-08-30T07:36:14.728Z,1152.00
2022-08-30T07:37:18.277Z,1164.00
2022-08-30T07:38:14.670Z,1164.00
2022-08-30T07:39:14.643Z,1172.00
2022-08-30T07:40:14.660Z,1156.00
2022-08-30T07:41:14.582Z,1148.00
2022-08-30T07:42:14.555Z,1120.00
2022-08-30T07:43:14.524Z,1100.00
2022-08-30T07:44:14.493Z,1064.00
2022-08-30T07:45:14.468Z,1052.00
2022-08-30T07:46:14.456Z,1032.00
2022-08-30T07:47:14.404Z,1048.00
2022-08-30T07:48:14.375Z,1060.00
2022-08-30T07:49:14.352Z,1060.00
2022-08-30T07:50:14.317Z,1072.00
2022-08-30T07:51:14.290Z,1108.00
2022-08-30T07:52:14.264Z,1148.00
2022-08-30T07:53:14.261Z,1176.00
2022-08-30T07:54:14.198Z,1180.00
2022-08-30T07:55:14.177Z,1196.00
2022-08-30T07:56:14.143Z,1208.00
2022-08-30T07:57:16.048Z,1244.00
2022-08-30T07:58:14.086Z,1252.00
2022-08-30T07:59:14.057Z,1252.00
2022-08-30T08:00:14.028Z,1200.00
2022-08-30T08:01:14.039Z,1192.00
2022-08-30T08:02:13.993Z,1196.00
2022-08-30T08:03:13.939Z,1244.00
2022-08-30T08:04:13.910Z,1248.00
2022-08-30T08:05:17.054Z,1272.00
2022-08-30T08:06:13.855Z,1316.00
2022-08-30T08:07:13.823Z,1376.00
2022-08-30T08:08:13.794Z,1404.00
2022-08-30T08:09:13.766Z,1424.00
2022-08-30T08:10:13.740Z,1424.00
2022-08-30T08:11:16.210Z,1416.00
2022-08-30T08:12:13.679Z,1424.00
2022-08-30T08:13:13.654Z,1460.00
2022-08-30T08:14:13.622Z,1476.00
2022-08-30T08:15:13.599Z,1468.00
2022-08-30T08:16:13.590Z,1476.00
2022-08-30T08:17:13.538Z,1472.00
2022-08-30T08:18:13.515Z,1448.00
2022-08-30T08:19:13.484Z,1452.00
2022-08-30T08:20:13.474Z,1452.00
2022-08-30T08:21:13.424Z,1428.00
2022-08-30T08:22:21.720Z,1376.00
2022-08-30T08:23:13.372Z,1348.00
2022-08-30T08:24:13.340Z,1308.00
2022-08-30T08:25:13.311Z,1312.00
2022-08-30T08:26:13.280Z,1264.00
2022-08-30T08:27:13.260Z,1216.00
2022-08-30T08:28:13.252Z,1172.00
2022-08-30T08:29:13.201Z,1128.00
2022-08-30T08:30:13.171Z,1072.00
2022-08-30T08:31:13.177Z,1108.00
2022-08-30T08:32:13.117Z,1120.00
2022-08-30T08:33:13.089Z,1116.00
2022-08-30T08:34:13.066Z,1092.00
2022-08-30T08:35:13.071Z,1112.00
2022-08-30T08:36:13.001Z,1124.00
2022-08-30T08:37:12.972Z,1140.00
2022-08-30T08:38:12.989Z,1144.00
2022-08-30T08:39:12.920Z,1148.00
2022-08-30T08:40:12.945Z,1152.00
2022-08-30T08:41:12.866Z,1144.00
2022-08-30T08:42:12.832Z,1116.00
2022-08-30T08:43:12.808Z,1092.00
2022-08-30T08:44:12.778Z,1088.00
2022-08-30T08:45:12.753Z,1096.00
2022-08-30T08:46:12.733Z,1108.00
2022-08-30T08:47:12.696Z,1132.00
2022-08-30T08:48:12.736Z,1140.00
2022-08-30T08:49:12.638Z,1140.00
2022-08-30T08:50:12.609Z,1144.00
2022-08-30T08:51:12.586Z,1148.00
2022-08-30T08:52:12.556Z,1144.00
2022-08-30T08:53:25.003Z,1136.00
2022-08-30T08:54:12.500Z,1132.00
2022-08-30T08:55:12.472Z,1124.00
2022-08-30T08:56:12.444Z,1132.00
2022-08-30T08:57:15.892Z,1140.00
2022-08-30T08:58:12.452Z,1164.00
2022-08-30T08:59:12.358Z,1164.00
2022-08-30T09:00:12.334Z,1172.00
2022-08-30T09:01:12.333Z,1176.00
2022-08-30T09:02:12.280Z,1176.00
2022-08-30T09:03:12.251Z,1188.00
2022-08-30T09:04:12.224Z,1160.00
2022-08-30T09:05:12.273Z,1172.00
2022-08-30T09:06:12.169Z,1188.00
2022-08-30T09:07:12.144Z,1300.00
2022-08-30T09:08:12.114Z,1324.00
2022-08-30T09:09:12.093Z,1336.00
2022-08-30T09:10:12.054Z,1308.00
2022-08-30T09:11:12.032Z,1360.00
2022-08-30T09:12:12.008Z,1380.00
2022-08-30T09:13:15.092Z,1404.00
2022-08-30T09:14:11.944Z,1424.00
2022-08-30T09:15:11.920Z,1524.00
2022-08-30T09:16:13.987Z,1540.00
2022-08-30T09:17:11.866Z,1564.00
2022-08-30T09:18:19.496Z,1584.00
2022-08-30T09:19:11.820Z,1616.00
2022-08-30T09:20:11.783Z,1628.00
2022-08-30T09:21:11.755Z,1648.00
2022-08-30T09:22:11.728Z,1688.00
2022-08-30T09:23:11.703Z,1736.00
2022-08-30T09:24:11.674Z,1784.00
2022-08-30T09:25:11.646Z,1824.00
2022-08-30T09:26:11.619Z,1840.00
2022-08-30T09:27:11.591Z,1852.00
2022-08-30T09:28:11.565Z,1828.00
2022-08-30T09:29:11.537Z,1828.00
2022-08-30T09:30:15.100Z,1816.00
2022-08-30T09:31:12.539Z,1820.00
2022-08-30T09:32:25.382Z,1828.00
2022-08-30T09:33:11.427Z,1840.00
2022-08-30T09:34:11.398Z,1884.00
2022-08-30T09:35:11.368Z,1900.00
2022-08-30T09:36:11.343Z,1872.00
2022-08-30T09:37:11.380Z,1840.00
2022-08-30T09:38:11.294Z,1824.00
2022-08-30T09:39:11.264Z,1796.00
2022-08-30T09:40:11.305Z,1784.00
2022-08-30T09:41:11.209Z,1792.00
2022-08-30T09:42:11.181Z,1788.00
2022-08-30T09:43:11.958Z,1716.00
2022-08-30T09:44:11.127Z,1672.00
2022-08-30T09:45:11.104Z,1652.00
2022-08-30T09:46:11.243Z,1632.00
2022-08-30T09:47:11.048Z,1628.00
2022-08-30T09:48:11.020Z,1688.00
2022-08-30T09:49:10.998Z,1696.00
2022-08-30T09:50:10.967Z,1744.00
2022-08-30T09:51:11.572Z,1780.00
2022-08-30T09:52:10.918Z,1836.00
2022-08-30T09:53:10.885Z,1840.00
2022-08-30T09:54:18.702Z,1860.00
2022-08-30T09:55:10.829Z,1900.00
2022-08-30T09:56:10.803Z,1936.00
2022-08-30T09:57:11.616Z,1952.00
2022-08-30T09:58:10.750Z,1972.00
2022-08-30T09:59:10.728Z,1952.00
2022-08-30T10:00:11.764Z,1980.00
2022-08-30T10:01:10.737Z,1884.00
2022-08-30T10:02:10.696Z,1868.00
2022-08-30T10:03:10.696Z,1896.00
2022-08-30T10:04:10.604Z,1964.00
2022-08-30T10:05:10.571Z,1932.00
2022-08-30T10:06:10.540Z,1888.00
2022-08-30T10:07:10.519Z,1908.00
2022-08-30T10:08:12.644Z,1976.00
2022-08-30T10:09:10.462Z,1952.00
2022-08-30T10:10:10.440Z,2032.00
2022-08-30T10:11:10.409Z,2116.00
2022-08-30T10:12:10.382Z,2176.00
2022-08-30T10:13:10.388Z,2192.00
2022-08-30T10:14:10.327Z,2192.00
2022-08-30T10:15:10.316Z,2196.00
2022-08-30T10:16:10.277Z,2216.00
2022-08-30T10:17:10.254Z,2220.00
2022-08-30T10:18:10.263Z,2244.00
2022-08-30T10:19:10.199Z,2232.00
2022-08-30T10:20:10.254Z,2224.00
2022-08-30T10:21:10.145Z,2216.00
2022-08-30T10:22:10.122Z,2208.00
2022-08-30T10:23:10.157Z,2216.00
2022-08-30T10:24:10.074Z,2248.00
2022-08-30T10:25:10.041Z,2276.00
2022-08-30T10:26:10.018Z,2260.00
2022-08-30T10:27:09.999Z,2272.00
2022-08-30T10:28:09.972Z,2312.00
2022-08-30T10:29:09.945Z,2312.00
2022-08-30T10:30:09.929Z,2344.00
2022-08-30T10:31:09.889Z,2340.00
2022-08-30T10:32:09.860Z,2260.00
2022-08-30T10:33:09.893Z,2388.00
2022-08-30T10:34:09.807Z,2432.00
2022-08-30T10:35:09.786Z,2336.00
2022-08-30T10:36:10.530Z,2372.00
2022-08-30T10:37:09.759Z,2348.00
2022-08-30T10:38:09.707Z,2376.00
2022-08-30T10:39:09.688Z,2416.00
2022-08-30T10:40:09.685Z,2464.00
2022-08-30T10:41:09.634Z,2484.00
2022-08-30T10:42:09.610Z,2520.00
2022-08-30T10:43:09.699Z,2480.00
2022-08-30T10:44:09.556Z,2456.00
2022-08-30T10:45:09.535Z,2420.00
2022-08-30T10:46:09.510Z,2472.00
2022-08-30T10:47:09.493Z,2544.00
2022-08-30T10:48:09.460Z,2616.00
2022-08-30T10:49:09.442Z,2756.00
2022-08-30T10:50:09.414Z,2836.00
2022-08-30T10:51:09.386Z,2964.00
2022-08-30T10:52:09.364Z,3240.00
2022-08-30T10:53:09.342Z,3408.00
2022-08-30T10:54:09.312Z,3592.00
2022-08-30T10:55:10.794Z,3540.00
2022-08-30T10:56:09.265Z,3628.00
2022-08-30T10:57:09.239Z,3712.00
2022-08-30T10:58:09.216Z,3900.00
2022-08-30T10:59:11.940Z,3976.00
2022-08-30T11:00:09.187Z,4056.00
2022-08-30T11:01:09.172Z,4120.00
2022-08-30T11:02:09.124Z,4188.00
2022-08-30T11:03:09.104Z,4000.00
2022-08-30T11:04:09.101Z,3980.00
2022-08-30T11:05:09.047Z,3984.00
2022-08-30T11:06:09.035Z,3144.00
2022-08-30T11:07:10.098Z,3304.00
2022-08-30T11:08:09.002Z,3028.00
2022-08-30T11:09:08.957Z,3016.00
2022-08-30T11:10:09.008Z,3216.00
2022-08-30T11:11:12.916Z,3356.00
2022-08-30T11:12:08.881Z,3644.00
2022-08-30T11:13:08.863Z,3648.00
2022-08-30T11:14:08.841Z,3080.00
2022-08-30T11:15:08.817Z,2896.00
2022-08-30T11:16:08.793Z,3032.00
2022-08-30T11:17:08.771Z,3160.00
2022-08-30T11:18:08.745Z,3380.00
2022-08-30T11:19:08.725Z,4048.00
2022-08-30T11:20:08.704Z,5524.00
2022-08-30T11:21:13.773Z,5508.00
2022-08-30T11:22:08.655Z,5704.00
2022-08-30T11:23:08.637Z,5796.00
2022-08-30T11:24:11.446Z,5688.00
2022-08-30T11:26:08.561Z,3124.00
2022-08-30T11:27:08.537Z,3120.00
2022-08-30T11:28:09.202Z,3796.00
2022-08-30T11:29:08.491Z,5956.00
2022-08-30T11:30:08.469Z,3904.00
2022-08-30T11:31:08.447Z,4400.00
2022-08-30T11:32:08.422Z,3276.00
2022-08-30T11:33:09.370Z,3748.00
2022-08-30T11:34:08.389Z,4056.00
2022-08-30T11:35:11.203Z,3776.00
2022-08-30T11:36:08.332Z,3496.00
2022-08-30T11:37:10.019Z,3644.00
2022-08-30T11:38:08.286Z,3432.00
2022-08-30T11:39:08.262Z,3516.00
2022-08-30T11:40:15.602Z,4872.00
2022-08-30T11:41:09.489Z,6120.00
2022-08-30T11:42:08.193Z,4460.00
2022-08-30T11:43:08.171Z,3816.00
2022-08-30T11:44:08.150Z,3656.00
2022-08-30T11:45:08.127Z,4756.00
2022-08-30T11:46:12.654Z,6056.00
2022-08-30T11:47:08.084Z,4320.00
2022-08-30T11:48:08.054Z,3060.00
2022-08-30T11:49:08.155Z,3080.00
2022-08-30T11:50:09.843Z,3356.00
2022-08-30T11:51:07.990Z,5160.00
2022-08-30T11:52:26.295Z,6764.00
2022-08-30T11:53:07.947Z,6824.00
2022-08-30T11:54:07.920Z,7132.00
2022-08-30T11:55:07.901Z,6980.00
2022-08-30T11:56:07.876Z,8180.00
2022-08-30T11:57:07.860Z,7980.00
2022-08-30T11:58:07.837Z,8668.00
2022-08-30T11:59:07.808Z,8808.00
2022-08-30T12:00:07.796Z,8956.00
2022-08-30T12:01:20.635Z,9340.00
2022-08-30T12:02:07.933Z,9068.00
2022-08-30T12:03:07.839Z,8864.00
2022-08-30T12:04:07.695Z,7904.00
2022-08-30T12:05:07.671Z,8368.00
2022-08-30T12:06:07.649Z,8476.00
2022-08-30T12:07:07.629Z,7128.00
2022-08-30T12:08:07.602Z,3192.00
2022-08-30T12:09:08.313Z,3228.00
2022-08-30T12:10:07.572Z,3264.00
2022-08-30T12:11:07.537Z,3488.00
2022-08-30T12:12:07.521Z,3708.00
2022-08-30T12:13:07.509Z,3720.00
2022-08-30T12:14:09.360Z,3896.00
2022-08-30T12:15:07.449Z,4184.00
2022-08-30T12:16:07.444Z,6308.00
2022-08-30T12:17:07.403Z,7872.00
2022-08-30T12:18:07.380Z,9480.00
2022-08-30T12:19:07.359Z,4000.00
2022-08-30T12:20:07.336Z,6920.00
2022-08-30T12:21:07.845Z,8956.00
2022-08-30T12:22:07.289Z,9384.00
2022-08-30T12:23:07.268Z,9144.00
2022-08-30T12:24:07.246Z,9560.00
2022-08-30T12:25:07.226Z,9044.00
2022-08-30T12:26:07.202Z,9124.00
2022-08-30T12:27:07.183Z,6420.00
2022-08-30T12:28:07.161Z,4368.00
2022-08-30T12:29:07.137Z,4064.00
2022-08-30T12:30:07.119Z,5212.00
2022-08-30T12:31:07.092Z,9268.00
2022-08-30T12:32:07.087Z,9884.00
2022-08-30T12:33:07.053Z,9656.00
2022-08-30T12:34:07.030Z,10704.00
2022-08-30T12:35:07.006Z,10708.00
2022-08-30T12:36:06.987Z,10884.00
2022-08-30T12:37:06.963Z,10688.00
2022-08-30T12:38:06.936Z,10876.00
2022-08-30T12:39:06.921Z,10920.00
2022-08-30T12:40:07.009Z,10864.00
2022-08-30T12:41:06.879Z,10820.00
2022-08-30T12:42:06.859Z,10404.00
2022-08-30T12:43:07.806Z,11104.00
2022-08-30T12:44:06.813Z,11104.00
2022-08-30T12:45:06.790Z,10584.00
2022-08-30T12:46:07.361Z,8636.00
2022-08-30T12:47:06.745Z,7480.00
2022-08-30T12:48:06.887Z,7104.00
2022-08-30T12:49:06.706Z,4332.00
2022-08-30T12:50:06.684Z,4092.00
2022-08-30T12:51:06.665Z,3968.00
2022-08-30T12:52:06.642Z,3852.00
2022-08-30T12:53:10.442Z,3760.00
2022-08-30T12:54:06.599Z,3756.00
2022-08-30T12:55:13.528Z,3892.00
2022-08-30T12:56:06.565Z,4184.00
2022-08-30T12:57:25.383Z,5016.00
2022-08-30T12:58:06.516Z,8320.00
2022-08-30T12:59:06.517Z,7376.00
2022-08-30T13:00:06.486Z,6344.00
2022-08-30T13:01:06.642Z,9144.00
2022-08-30T13:02:06.566Z,11072.00
2022-08-30T13:03:16.004Z,11704.00
2022-08-30T13:04:06.394Z,12268.00
2022-08-30T13:05:06.369Z,12324.00
2022-08-30T13:06:06.376Z,12424.00
2022-08-30T13:07:06.327Z,12300.00
2022-08-30T13:08:06.319Z,12400.00
2022-08-30T13:09:06.288Z,12368.00
2022-08-30T13:10:06.272Z,12464.00
2022-08-30T13:11:08.499Z,12312.00
2022-08-30T13:12:06.226Z,12644.00
2022-08-30T13:13:06.206Z,12904.00
2022-08-30T13:14:06.187Z,13072.00
2022-08-30T13:15:06.166Z,13024.00
2022-08-30T13:16:06.173Z,13260.00
2022-08-30T13:17:06.128Z,13376.00
2022-08-30T13:18:06.104Z,13484.00
2022-08-30T13:19:06.085Z,13544.00
2022-08-30T13:20:06.064Z,13828.00
2022-08-30T13:21:06.048Z,13884.00
2022-08-30T13:22:06.022Z,13960.00
2022-08-30T13:23:06.004Z,13956.00
2022-08-30T13:24:05.980Z,13908.00
2022-08-30T13:25:05.970Z,13892.00
2022-08-30T13:26:05.950Z,13832.00
2022-08-30T13:27:05.923Z,13932.00
2022-08-30T13:28:05.905Z,14020.00
2022-08-30T13:29:10.461Z,14064.00
2022-08-30T13:30:05.866Z,14044.00
2022-08-30T13:31:05.892Z,14016.00
2022-08-30T13:32:05.837Z,13896.00
2022-08-30T13:33:05.817Z,13780.00
2022-08-30T13:34:05.789Z,13836.00
2022-08-30T13:35:05.771Z,13860.00
2022-08-30T13:36:05.750Z,13704.00
2022-08-30T13:37:05.764Z,13604.00
2022-08-30T13:38:05.714Z,13232.00
2022-08-30T13:39:05.704Z,13884.00
2022-08-30T13:40:05.815Z,13836.00
2022-08-30T13:41:05.662Z,13912.00
2022-08-30T13:43:05.626Z,12908.00
2022-08-30T13:44:14.069Z,12720.00
2022-08-30T13:45:40.815Z,14392.00
2022-08-30T13:46:05.612Z,14348.00
2022-08-30T13:48:05.529Z,9724.00
2022-08-30T13:49:05.593Z,12220.00
2022-08-30T13:50:05.490Z,12636.00
2022-08-30T13:51:05.473Z,14428.00
2022-08-30T13:52:19.938Z,14776.00
2022-08-30T13:53:05.434Z,14936.00
2022-08-30T13:54:05.422Z,14020.00
2022-08-30T13:55:05.394Z,14540.00
2022-08-30T13:56:05.377Z,14280.00
2022-08-30T13:57:05.358Z,14132.00
2022-08-30T13:58:05.339Z,14184.00
2022-08-30T13:59:05.323Z,13440.00
2022-08-30T14:00:05.308Z,12412.00
2022-08-30T14:01:05.320Z,12556.00
2022-08-30T14:02:08.745Z,12760.00
2022-08-30T14:03:05.257Z,14868.00
2022-08-30T14:04:20.604Z,14108.00
2022-08-30T14:05:05.243Z,11412.00
2022-08-30T14:06:31.602Z,14252.00
2022-08-30T14:07:14.093Z,15252.00
2022-08-30T14:08:05.918Z,14760.00
2022-08-30T14:09:05.401Z,15200.00
2022-08-30T14:11:05.112Z,14912.00
2022-08-30T14:12:05.081Z,15248.00
2022-08-30T14:13:09.065Z,15316.00
2022-08-30T14:14:39.110Z,12636.00
2022-08-30T14:15:05.028Z,12900.00
2022-08-30T14:17:05.051Z,14320.00
2022-08-30T14:18:04.967Z,13912.00
2022-08-30T14:19:05.696Z,10932.00
2022-08-30T14:20:04.934Z,8844.00
2022-08-30T14:21:04.916Z,8264.00
2022-08-30T14:22:04.899Z,6176.00
2022-08-30T14:23:04.889Z,6080.00
2022-08-30T14:24:04.877Z,11664.00
2022-08-30T14:25:04.875Z,13388.00
2022-08-30T14:26:04.829Z,13120.00
2022-08-30T14:27:04.810Z,14116.00
2022-08-30T14:28:05.022Z,14456.00
2022-08-30T14:29:04.775Z,12104.00
2022-08-30T14:30:04.753Z,10848.00
2022-08-30T14:31:04.795Z,10416.00
2022-08-30T14:32:04.717Z,13892.00
2022-08-30T14:33:04.700Z,13084.00
2022-08-30T14:34:05.330Z,12396.00
2022-08-30T14:35:04.667Z,10044.00
2022-08-30T14:36:04.647Z,15728.00
2022-08-30T14:37:04.639Z,15808.00
2022-08-30T14:38:04.609Z,15656.00
2022-08-30T14:39:08.452Z,14696.00
2022-08-30T14:40:04.624Z,10940.00
2022-08-30T14:41:04.565Z,13376.00
2022-08-30T14:42:07.585Z,13752.00
2022-08-30T14:43:04.517Z,14960.00
2022-08-30T14:44:04.520Z,15108.00
2022-08-30T14:45:04.479Z,15096.00
2022-08-30T14:46:04.515Z,15084.00
2022-08-30T14:47:04.446Z,16544.00
2022-08-30T14:48:04.427Z,15556.00
2022-08-30T14:49:04.408Z,15400.00
2022-08-30T14:50:04.388Z,15424.00
2022-08-30T14:51:04.370Z,15340.00
2022-08-30T14:52:04.356Z,15336.00
2022-08-30T14:53:04.333Z,15344.00
2022-08-30T14:54:04.319Z,15388.00
2022-08-30T14:55:08.636Z,15448.00
2022-08-30T14:56:04.277Z,15540.00
2022-08-30T14:57:04.272Z,15744.00
2022-08-30T14:58:04.241Z,15712.00
2022-08-30T14:59:04.222Z,14860.00
2022-08-30T15:00:04.222Z,14020.00
2022-08-30T15:01:04.238Z,12936.00
2022-08-30T15:02:04.174Z,15236.00
2022-08-30T15:03:04.148Z,14652.00
2022-08-30T15:04:04.169Z,14196.00
2022-08-30T15:05:04.107Z,13264.00
2022-08-30T15:06:04.098Z,13168.00
2022-08-30T15:07:04.071Z,12816.00
2022-08-30T15:08:04.050Z,10840.00
2022-08-30T15:09:04.034Z,8800.00
2022-08-30T15:10:04.014Z,10340.00
2022-08-30T15:11:03.997Z,10296.00
2022-08-30T15:12:03.974Z,11088.00
2022-08-30T15:13:05.028Z,11992.00
2022-08-30T15:14:03.937Z,14040.00
2022-08-30T15:15:03.922Z,14596.00
2022-08-30T15:16:03.948Z,14448.00
2022-08-30T15:17:03.888Z,13156.00
2022-08-30T15:18:03.864Z,12784.00
2022-08-30T15:19:03.864Z,11240.00
2022-08-30T15:20:07.404Z,11176.00
2022-08-30T15:21:03.813Z,11516.00
2022-08-30T15:22:03.785Z,10928.00
2022-08-30T15:23:03.766Z,11752.00
2022-08-30T15:24:03.744Z,12576.00
2022-08-30T15:25:03.726Z,13592.00
2022-08-30T15:26:03.708Z,13612.00
2022-08-30T15:27:03.686Z,7536.00
2022-08-30T15:28:03.668Z,6520.00
2022-08-30T15:29:03.654Z,8628.00
2022-08-30T15:30:03.628Z,9284.00
2022-08-30T15:31:08.577Z,10076.00
2022-08-30T15:32:03.696Z,8104.00
2022-08-30T15:33:03.568Z,9180.00
2022-08-30T15:34:03.549Z,7156.00
2022-08-30T15:35:03.538Z,6748.00
2022-08-30T15:36:04.396Z,6412.00
2022-08-30T15:37:03.626Z,4512.00
2022-08-30T15:38:03.469Z,6088.00
2022-08-30T15:39:03.451Z,6756.00
2022-08-30T15:40:04.564Z,6600.00
2022-08-30T15:41:03.412Z,7496.00
2022-08-30T15:42:03.722Z,7220.00
2022-08-30T15:43:03.372Z,7336.00
2022-08-30T15:44:03.352Z,6156.00
2022-08-30T15:45:03.332Z,4208.00
2022-08-30T15:46:03.310Z,3896.00
2022-08-30T15:47:03.331Z,2904.00
2022-08-30T15:48:03.265Z,3076.00
2022-08-30T15:49:03.248Z,2656.00
2022-08-30T15:50:03.238Z,2796.00
2022-08-30T15:51:03.214Z,2764.00